VISIB

Not for real navigation. The accuracy of this data is not assured See disclaimer for more information



ICAO NAME COUNTRY WIND Kt GUST Kt VIS m TEMP/DEW C BARO METAR
SAVV Viedma Aerodrome Argentina 6 0 50 5/5 29.85 SAVV 281130Z 32006KT 0050 FG BKN002 05/05 Q1011
K1LW 10 0 200 16/16 30.16 K1LW 281158Z AUTO 12010KT 0.125SM FG VV002 16/16 A3016 RMK AO2 SLP155 70024 T01570158 10177 20157 53
SBCO Porto Alegre Brazil 0 0 300 12/12 30.27 SBCO 281100Z 00000KT 0300 R30/0300 R12/0300 FG VV001 12/12 Q1025
KBVS Burlington/Mount Vernon, Skagi WA United States 0 0 400 10/10 30.12 KBVS 281215Z AUTO 00000KT 0.25SM FG BKN007 10/10 A3012 RMK A01
K2G4 6 0 400 17/17 29.92 K2G4 281210Z AUTO 11006KT 0.25SM OVC001 17/17 A2992 RMK AO1

Show more